createdAt,value
2018-12-20T00:01:25.374Z,94503.84
2018-12-20T00:03:53.626Z,94506.45
2018-12-20T00:06:21.772Z,94500.16
2018-12-20T00:08:49.963Z,94507.97
2018-12-20T00:11:19.191Z,94500.48
2018-12-20T00:13:47.319Z,94505.39
2018-12-20T00:16:15.427Z,94507.85
2018-12-20T00:18:43.542Z,94509.20
2018-12-20T00:21:11.852Z,94509.25
2018-12-20T00:23:39.930Z,94510.56
2018-12-20T00:26:08.038Z,94513.28
2018-12-20T00:28:36.111Z,94512.23
2018-12-20T00:31:04.307Z,94512.37
2018-12-20T00:33:32.420Z,94514.88
2018-12-20T00:36:00.570Z,94518.40
2018-12-20T00:38:28.685Z,94513.13
2018-12-20T00:40:56.795Z,94524.90
2018-12-20T00:43:26.168Z,94524.71
2018-12-20T00:45:54.334Z,94520.34
2018-12-20T00:48:22.411Z,94525.98
2018-12-20T00:50:51.651Z,94518.44
2018-12-20T00:53:19.867Z,94528.63
2018-12-20T00:55:47.990Z,94525.12
2018-12-20T00:58:16.142Z,94528.55
2018-12-20T01:00:44.310Z,94529.94
2018-12-20T01:03:12.551Z,94521.88
2018-12-20T01:05:40.746Z,94524.89
2018-12-20T01:08:09.045Z,94522.17
2018-12-20T01:10:37.408Z,94522.17
2018-12-20T01:13:05.578Z,94519.30
2018-12-20T01:15:33.745Z,94529.61
2018-12-20T01:18:01.850Z,94522.67
2018-12-20T01:20:30.035Z,94522.46
2018-12-20T01:22:58.298Z,94524.41
2018-12-20T01:25:26.470Z,94530.30
2018-12-20T01:27:54.694Z,94534.07
2018-12-20T01:30:22.742Z,94525.87
2018-12-20T01:32:50.864Z,94524.50
2018-12-20T01:35:19.327Z,94525.88
2018-12-20T01:37:47.556Z,94527.75
2018-12-20T01:40:15.856Z,94528.97
2018-12-20T01:42:44.024Z,94529.48
2018-12-20T01:45:12.168Z,94529.17
2018-12-20T01:47:40.352Z,94537.56
2018-12-20T01:50:08.509Z,94534.50
2018-12-20T01:52:36.632Z,94532.12
2018-12-20T01:55:04.979Z,94526.33
2018-12-20T01:57:33.101Z,94527.11
2018-12-20T02:00:01.592Z,94528.25
2018-12-20T02:02:29.783Z,94523.21
2018-12-20T02:04:57.853Z,94520.25
2018-12-20T02:07:25.946Z,94522.96
2018-12-20T02:09:53.980Z,94524.06
2018-12-20T02:12:22.028Z,94521.70
2018-12-20T02:14:50.192Z,94520.40
2018-12-20T02:17:18.412Z,94519.23
2018-12-20T02:19:46.495Z,94521.02
2018-12-20T02:22:14.673Z,94511.77
2018-12-20T02:24:43.007Z,94510.56
2018-12-20T02:27:11.144Z,94512.90
2018-12-20T02:29:39.350Z,94510.61
2018-12-20T02:32:07.789Z,94510.70
2018-12-20T02:34:35.898Z,94512.48
2018-12-20T02:37:04.018Z,94504.47
2018-12-20T02:39:32.178Z,94499.52
2018-12-20T02:42:00.318Z,94500.86
2018-12-20T02:44:28.968Z,94494.36
2018-12-20T02:46:57.380Z,94497.10
2018-12-20T02:49:25.685Z,94497.24
2018-12-20T02:51:53.821Z,94507.63
2018-12-20T02:54:21.853Z,94505.00
2018-12-20T02:56:50.035Z,94498.57
2018-12-20T02:59:18.154Z,94498.36
2018-12-20T03:01:46.627Z,94498.73
2018-12-20T03:04:14.750Z,94499.19
2018-12-20T03:06:42.790Z,94497.00
2018-12-20T03:09:10.900Z,94498.61
2018-12-20T03:11:39.058Z,94489.65
2018-12-20T03:14:07.147Z,94494.86
2018-12-20T03:16:35.293Z,94496.30
2018-12-20T03:19:03.524Z,94490.52
2018-12-20T03:21:31.729Z,94491.19
2018-12-20T03:23:59.924Z,94498.22
2018-12-20T03:26:27.971Z,94495.22
2018-12-20T03:28:56.215Z,94495.45
2018-12-20T03:31:24.342Z,94496.45
2018-12-20T03:33:52.390Z,94500.77
2018-12-20T03:36:20.689Z,94494.20
2018-12-20T03:38:48.957Z,94499.78
2018-12-20T03:41:17.000Z,94491.41
2018-12-20T03:43:45.290Z,94487.55
2018-12-20T03:46:13.568Z,94484.16
2018-12-20T03:48:41.786Z,94477.09
2018-12-20T03:51:09.883Z,94483.09
2018-12-20T03:56:19.608Z,94484.27
2018-12-20T03:58:47.992Z,94485.64
2018-12-20T04:01:17.216Z,94483.05
2018-12-20T04:03:45.381Z,94477.17
2018-12-20T04:06:13.628Z,94478.20
2018-12-20T04:08:41.723Z,94488.20
2018-12-20T04:11:10.023Z,94487.52
2018-12-20T04:13:38.183Z,94491.55
2018-12-20T04:16:06.566Z,94480.89
2018-12-20T04:18:34.706Z,94484.55
2018-12-20T04:21:02.769Z,94477.24
2018-12-20T04:23:30.891Z,94467.68
2018-12-20T04:25:58.918Z,94484.17
2018-12-20T04:28:27.091Z,94481.24
2018-12-20T04:30:55.169Z,94480.50
2018-12-20T04:33:23.424Z,94480.00
2018-12-20T04:35:51.612Z,94483.69
2018-12-20T04:38:19.704Z,94497.07
2018-12-20T04:40:47.973Z,94489.72
2018-12-20T04:43:16.099Z,94484.23
2018-12-20T04:45:46.810Z,94479.28
2018-12-20T04:48:15.756Z,94482.09
2018-12-20T04:50:45.116Z,94477.73
2018-12-20T04:53:13.166Z,94477.70
2018-12-20T04:55:41.289Z,94476.81
2018-12-20T04:58:09.651Z,94484.70
2018-12-20T05:00:37.841Z,94483.37
2018-12-20T05:03:06.186Z,94479.41
2018-12-20T05:05:34.407Z,94478.32
2018-12-20T05:08:02.691Z,94483.41
2018-12-20T05:10:31.005Z,94485.52
2018-12-20T05:12:59.063Z,94479.38
2018-12-20T05:15:27.234Z,94477.44
2018-12-20T05:17:55.331Z,94476.03
2018-12-20T05:20:23.382Z,94477.67
2018-12-20T05:22:51.910Z,94478.56
2018-12-20T05:25:20.120Z,94482.72
2018-12-20T05:27:48.339Z,94481.45
2018-12-20T05:30:16.669Z,94486.25
2018-12-20T05:35:26.511Z,94478.97
2018-12-20T05:37:55.076Z,94480.27
2018-12-20T05:40:23.323Z,94474.94
2018-12-20T05:42:51.676Z,94478.38
2018-12-20T05:45:19.882Z,94473.29
2018-12-20T05:47:48.093Z,94473.77
2018-12-20T05:52:57.537Z,94468.88
2018-12-20T05:55:26.936Z,94472.61
2018-12-20T05:57:55.280Z,94467.91
2018-12-20T06:00:23.392Z,94474.07
2018-12-20T06:02:51.665Z,94474.56
2018-12-20T06:05:19.815Z,94474.80
2018-12-20T06:07:47.854Z,94487.53
2018-12-20T06:10:16.039Z,94481.38
2018-12-20T06:12:44.208Z,94475.42
2018-12-20T06:15:12.566Z,94482.42
2018-12-20T06:17:40.740Z,94486.76
2018-12-20T06:20:08.931Z,94481.42
2018-12-20T06:22:37.029Z,94493.89
2018-12-20T06:25:05.371Z,94499.44
2018-12-20T06:27:33.523Z,94490.72
2018-12-20T06:30:01.717Z,94501.47
2018-12-20T06:32:29.742Z,94498.53
2018-12-20T06:34:57.875Z,94488.14
2018-12-20T06:37:25.899Z,94504.30
2018-12-20T06:39:53.934Z,94501.16
2018-12-20T06:42:21.981Z,94502.26
2018-12-20T06:44:50.004Z,94500.45
2018-12-20T06:47:18.121Z,94506.89
2018-12-20T06:49:46.159Z,94504.77
2018-12-20T06:52:14.172Z,94498.58
2018-12-20T06:54:42.311Z,94496.91
2018-12-20T06:57:10.351Z,94504.51
2018-12-20T06:59:38.390Z,94500.94
2018-12-20T07:02:06.491Z,94501.13
2018-12-20T07:04:34.533Z,94500.73
2018-12-20T07:07:02.557Z,94503.88
2018-12-20T07:09:30.679Z,94506.28
2018-12-20T07:11:58.704Z,94505.67
2018-12-20T07:14:26.769Z,94503.19
2018-12-20T07:16:54.802Z,94500.67
2018-12-20T07:19:22.871Z,94500.67
2018-12-20T07:21:50.974Z,94499.86
2018-12-20T07:24:19.085Z,94501.57
2018-12-20T07:26:47.157Z,94508.05
2018-12-20T07:29:15.285Z,94512.19
2018-12-20T07:31:43.492Z,94510.08
2018-12-20T07:34:11.596Z,94512.18
2018-12-20T07:36:39.777Z,94516.73
2018-12-20T07:39:08.451Z,94520.33
2018-12-20T07:41:36.490Z,94525.19
2018-12-20T07:44:04.831Z,94518.27
2018-12-20T07:46:37.789Z,94509.13
2018-12-20T07:49:03.132Z,94523.19
2018-12-20T07:51:31.175Z,94519.09
2018-12-20T07:53:59.212Z,94515.08
2018-12-20T07:56:27.336Z,94514.75
2018-12-20T07:58:55.363Z,94514.58
2018-12-20T08:01:23.475Z,94519.33
2018-12-20T08:03:51.518Z,94516.84
2018-12-20T08:06:19.557Z,94519.13
2018-12-20T08:08:47.590Z,94529.61
2018-12-20T08:11:16.015Z,94525.56
2018-12-20T08:13:44.070Z,94539.58
2018-12-20T08:16:12.136Z,94532.41
2018-12-20T08:18:40.225Z,94539.66
2018-12-20T08:21:08.748Z,94532.33
2018-12-20T08:23:36.874Z,94542.19
2018-12-20T08:26:04.907Z,94533.42
2018-12-20T08:28:32.979Z,94549.29
2018-12-20T08:31:01.109Z,94542.95
2018-12-20T08:33:29.158Z,94539.44
2018-12-20T08:35:57.206Z,94548.78
2018-12-20T08:38:25.242Z,94542.44
2018-12-20T08:40:53.343Z,94551.16
2018-12-20T08:43:21.386Z,94542.44
2018-12-20T08:45:49.494Z,94536.33
2018-12-20T08:48:17.590Z,94539.45
2018-12-20T08:50:45.630Z,94537.56
2018-12-20T08:55:40.890Z,94533.59
2018-12-20T08:58:08.907Z,94544.72
2018-12-20T09:00:36.985Z,94548.16
2018-12-20T09:03:05.046Z,94547.80
2018-12-20T09:05:33.202Z,94556.67
2018-12-20T09:08:02.314Z,94551.58
2018-12-20T09:10:30.442Z,94555.88
2018-12-20T09:12:58.480Z,94562.16
2018-12-20T09:15:26.635Z,94555.36
2018-12-20T09:17:54.706Z,94558.53
2018-12-20T09:20:22.818Z,94557.23
2018-12-20T09:22:50.859Z,94568.68
2018-12-20T09:25:18.987Z,94571.52
2018-12-20T09:27:47.068Z,94568.43
2018-12-20T09:30:15.384Z,94562.10
2018-12-20T09:32:43.462Z,94568.77
2018-12-20T09:35:11.518Z,94566.45
2018-12-20T09:37:39.638Z,94577.33
2018-12-20T09:40:07.859Z,94575.78
2018-12-20T09:42:36.905Z,94569.70
2018-12-20T09:45:05.345Z,94579.09
2018-12-20T09:47:38.720Z,94573.83
2018-12-20T09:50:07.387Z,94573.14
2018-12-20T09:52:35.479Z,94576.34
2018-12-20T09:55:03.599Z,94573.05
2018-12-20T09:57:33.326Z,94573.64
2018-12-20T10:00:01.505Z,94573.72
2018-12-20T10:02:29.713Z,94568.48
2018-12-20T10:04:57.781Z,94567.23
2018-12-20T10:07:25.969Z,94574.48
2018-12-20T10:09:54.090Z,94565.83
2018-12-20T10:12:22.191Z,94563.80
2018-12-20T10:14:50.265Z,94570.08
2018-12-20T10:17:20.053Z,94560.98
2018-12-20T10:19:48.445Z,94556.09
2018-12-20T10:22:16.491Z,94555.80
2018-12-20T10:24:44.566Z,94551.19
2018-12-20T10:27:12.589Z,94548.86
2018-12-20T10:29:40.809Z,94548.28
2018-12-20T10:32:08.940Z,94547.16
2018-12-20T10:34:37.001Z,94539.45
2018-12-20T10:37:05.123Z,94546.28
2018-12-20T10:39:33.821Z,94546.74
2018-12-20T10:42:02.058Z,94542.61
2018-12-20T10:44:30.205Z,94543.27
2018-12-20T10:47:02.526Z,94541.26
2018-12-20T10:49:30.609Z,94548.39
2018-12-20T10:51:58.722Z,94544.22
2018-12-20T10:54:26.834Z,94547.00
2018-12-20T10:56:54.898Z,94553.72
2018-12-20T10:59:22.943Z,94535.92
2018-12-20T11:01:55.166Z,94545.19
2018-12-20T11:04:30.536Z,94538.44
2018-12-20T11:07:04.038Z,94531.93
2018-12-20T11:09:37.477Z,94534.08
2018-12-20T11:12:08.505Z,94527.81
2018-12-20T11:14:37.121Z,94532.16
2018-12-20T11:17:05.233Z,94527.80
2018-12-20T11:19:33.337Z,94521.26
2018-12-20T11:22:01.471Z,94522.81
2018-12-20T11:24:29.566Z,94518.23
2018-12-20T11:26:57.725Z,94514.04
2018-12-20T11:29:25.864Z,94513.07
2018-12-20T11:31:54.011Z,94511.95
2018-12-20T11:34:22.053Z,94514.35
2018-12-20T11:36:50.098Z,94513.02
2018-12-20T11:39:18.163Z,94513.05
2018-12-20T11:41:46.295Z,94511.39
2018-12-20T11:44:14.415Z,94512.75
2018-12-20T11:46:42.509Z,94506.28
2018-12-20T11:49:10.682Z,94507.37
2018-12-20T11:51:38.783Z,94506.35
2018-12-20T11:54:06.878Z,94507.48
2018-12-20T11:56:34.957Z,94514.95
2018-12-20T11:59:03.005Z,94511.57
2018-12-20T12:01:32.227Z,94506.42
2018-12-20T12:04:00.357Z,94508.66
2018-12-20T12:06:28.415Z,94510.48
2018-12-20T12:08:56.489Z,94507.06
2018-12-20T12:11:24.563Z,94515.93
2018-12-20T12:13:52.598Z,94503.56
2018-12-20T12:16:20.732Z,94509.32
2018-12-20T12:18:48.788Z,94501.19
2018-12-20T12:21:16.926Z,94506.11
2018-12-20T12:23:44.977Z,94505.34
2018-12-20T12:26:13.075Z,94504.66
2018-12-20T12:28:41.137Z,94506.59
2018-12-20T12:31:09.197Z,94510.20
2018-12-20T12:33:37.254Z,94504.06
2018-12-20T12:36:05.404Z,94507.06
2018-12-20T12:38:33.453Z,94498.45
2018-12-20T12:41:01.513Z,94498.13
2018-12-20T12:43:29.637Z,94500.64
2018-12-20T12:45:57.689Z,94505.57
2018-12-20T12:48:25.761Z,94496.45
2018-12-20T12:50:53.825Z,94503.30
2018-12-20T12:53:21.873Z,94501.97
2018-12-20T12:55:50.010Z,94504.55
2018-12-20T12:58:18.124Z,94502.11
2018-12-20T13:00:46.275Z,94502.59
2018-12-20T13:03:14.544Z,94508.66
2018-12-20T13:05:42.589Z,94515.72
2018-12-20T13:08:10.650Z,94509.12
2018-12-20T13:10:38.772Z,94512.42
2018-12-20T13:13:06.858Z,94509.77
2018-12-20T13:15:34.898Z,94516.22
2018-12-20T13:18:06.116Z,94520.02
2018-12-20T13:20:33.177Z,94518.20
2018-12-20T13:23:01.221Z,94516.73
2018-12-20T13:25:29.350Z,94517.69
2018-12-20T13:27:57.406Z,94519.75
2018-12-20T13:30:25.469Z,94518.57
2018-12-20T13:32:53.512Z,94510.48
2018-12-20T13:35:21.637Z,94517.64
2018-12-20T13:37:49.679Z,94515.01
2018-12-20T13:40:17.913Z,94519.53
2018-12-20T13:42:46.004Z,94523.06
2018-12-20T13:45:14.061Z,94522.12
2018-12-20T13:47:42.153Z,94523.95
2018-12-20T13:50:10.310Z,94524.98
2018-12-20T13:52:38.368Z,94518.56
2018-12-20T13:55:06.580Z,94522.75
2018-12-20T13:57:34.691Z,94522.75
2018-12-20T14:00:02.860Z,94528.02
2018-12-20T14:02:30.988Z,94529.70
2018-12-20T14:04:59.111Z,94531.39
2018-12-20T14:07:27.504Z,94533.48
2018-12-20T14:09:55.692Z,94533.70
2018-12-20T14:12:23.750Z,94535.63
2018-12-20T14:14:51.842Z,94529.88
2018-12-20T14:17:19.998Z,94533.66
2018-12-20T14:19:48.052Z,94544.37
2018-12-20T14:22:16.188Z,94550.26
2018-12-20T14:24:44.325Z,94545.36
2018-12-20T14:27:12.637Z,94551.67
2018-12-20T14:29:40.733Z,94540.53
2018-12-20T14:32:08.797Z,94540.09
2018-12-20T14:34:36.850Z,94540.38
2018-12-20T14:37:05.057Z,94542.55
2018-12-20T14:39:33.102Z,94545.63
2018-12-20T14:42:01.173Z,94558.10
2018-12-20T14:44:29.226Z,94549.16
2018-12-20T14:46:57.337Z,94552.52
2018-12-20T14:49:25.485Z,94546.57
2018-12-20T14:51:53.517Z,94545.66
2018-12-20T14:54:21.634Z,94549.35
2018-12-20T14:56:49.816Z,94552.18
2018-12-20T14:59:17.879Z,94543.90
2018-12-20T15:01:45.928Z,94544.41
2018-12-20T15:04:13.988Z,94548.44
2018-12-20T15:06:42.070Z,94545.44
2018-12-20T15:09:10.229Z,94544.53
2018-12-20T15:11:38.251Z,94542.55
2018-12-20T15:14:06.301Z,94547.60
2018-12-20T15:16:34.390Z,94549.12
2018-12-20T15:19:02.446Z,94548.88
2018-12-20T15:21:30.546Z,94545.85
2018-12-20T15:23:58.638Z,94546.20
2018-12-20T15:26:26.698Z,94548.69
2018-12-20T15:28:54.736Z,94544.93
2018-12-20T15:31:22.848Z,94550.43
2018-12-20T15:33:50.973Z,94549.56
2018-12-20T15:36:19.076Z,94553.72
2018-12-20T15:38:47.111Z,94548.39
2018-12-20T15:41:15.508Z,94544.88
2018-12-20T15:43:43.619Z,94539.37
2018-12-20T15:46:11.750Z,94547.12
2018-12-20T15:48:39.796Z,94534.28
2018-12-20T15:51:07.918Z,94536.89
2018-12-20T15:53:36.012Z,94537.33
2018-12-20T15:56:04.149Z,94547.80
2018-12-20T15:58:32.191Z,94553.63
2018-12-20T16:01:00.261Z,94549.34
2018-12-20T16:03:28.315Z,94554.72
2018-12-20T16:05:56.347Z,94546.96
2018-12-20T16:10:58.741Z,94552.56
2018-12-20T16:13:26.768Z,94555.53
2018-12-20T16:15:54.926Z,94554.23
2018-12-20T16:18:24.089Z,94559.91
2018-12-20T16:20:52.117Z,94559.83
2018-12-20T16:23:20.159Z,94551.37
2018-12-20T16:25:48.344Z,94558.63
2018-12-20T16:28:16.438Z,94559.70
2018-12-20T16:30:44.541Z,94567.52
2018-12-20T16:33:12.634Z,94561.80
2018-12-20T16:35:40.717Z,94567.34
2018-12-20T16:38:08.748Z,94561.25
2018-12-20T16:40:36.808Z,94567.23
2018-12-20T16:43:04.931Z,94563.31
2018-12-20T16:45:32.970Z,94566.69
2018-12-20T16:48:01.101Z,94564.34
2018-12-20T16:50:29.250Z,94565.03
2018-12-20T16:52:57.282Z,94564.44
2018-12-20T16:55:25.371Z,94565.42
2018-12-20T16:57:53.470Z,94572.34
2018-12-20T17:00:21.557Z,94566.86
2018-12-20T17:02:49.700Z,94566.60
2018-12-20T17:05:17.798Z,94581.89
2018-12-20T17:07:45.829Z,94572.70
2018-12-20T17:10:13.909Z,94575.43
2018-12-20T17:12:42.055Z,94585.58
2018-12-20T17:15:10.145Z,94588.07
2018-12-20T17:17:38.180Z,94582.81
2018-12-20T17:20:07.508Z,94588.56
2018-12-20T17:22:35.666Z,94586.62
2018-12-20T17:25:03.806Z,94577.43
2018-12-20T17:27:31.834Z,94586.37
2018-12-20T17:29:59.887Z,94582.03
2018-12-20T17:32:27.980Z,94579.13
2018-12-20T17:34:56.026Z,94584.47
2018-12-20T17:37:24.288Z,94581.31
2018-12-20T17:39:52.316Z,94586.94
2018-12-20T17:42:20.336Z,94581.28
2018-12-20T17:44:51.476Z,94577.10
2018-12-20T17:47:19.577Z,94578.44
2018-12-20T17:49:47.733Z,94579.30
2018-12-20T17:52:15.907Z,94589.41
2018-12-20T17:54:43.988Z,94586.72
2018-12-20T17:57:12.116Z,94586.30
2018-12-20T17:59:40.143Z,94593.84
2018-12-20T18:02:08.229Z,94595.17
2018-12-20T18:04:36.257Z,94588.33
2018-12-20T18:07:04.431Z,94577.93
2018-12-20T18:09:32.531Z,94581.03
2018-12-20T18:12:00.566Z,94580.00
2018-12-20T18:14:28.850Z,94582.15
2018-12-20T18:16:56.919Z,94582.09
2018-12-20T18:19:25.017Z,94583.82
2018-12-20T18:21:53.051Z,94580.13
2018-12-20T18:24:21.106Z,94581.20
2018-12-20T18:26:49.133Z,94578.05
2018-12-20T18:29:17.253Z,94585.53
2018-12-20T18:31:45.338Z,94587.31
2018-12-20T18:34:13.378Z,94586.52
2018-12-20T18:36:41.404Z,94584.91
2018-12-20T18:39:09.539Z,94581.70
2018-12-20T18:41:37.699Z,94587.52
2018-12-20T18:44:05.777Z,94590.62
2018-12-20T18:46:33.801Z,94581.72
2018-12-20T18:49:01.844Z,94580.05
2018-12-20T18:51:29.982Z,94596.41
2018-12-20T18:53:58.015Z,94586.24
2018-12-20T18:56:26.127Z,94591.11
2018-12-20T18:58:54.141Z,94595.48
2018-12-20T19:01:22.526Z,94593.20
2018-12-20T19:03:50.661Z,94593.27
2018-12-20T19:06:18.813Z,94593.16
2018-12-20T19:08:46.822Z,94599.41
2018-12-20T19:11:14.853Z,94599.70
2018-12-20T19:13:42.876Z,94602.14
2018-12-20T19:16:10.896Z,94603.02
2018-12-20T19:18:38.909Z,94601.00
2018-12-20T19:21:07.119Z,94589.77
2018-12-20T19:23:35.230Z,94601.33
2018-12-20T19:26:03.617Z,94598.52
2018-12-20T19:28:31.663Z,94599.19
2018-12-20T19:30:59.777Z,94597.55
2018-12-20T19:33:27.813Z,94594.34
2018-12-20T19:35:55.834Z,94599.67
2018-12-20T19:38:23.849Z,94600.28
2018-12-20T19:40:52.957Z,94599.64
2018-12-20T19:43:21.093Z,94593.78
2018-12-20T19:45:49.184Z,94599.36
2018-12-20T19:48:17.227Z,94601.00
2018-12-20T19:50:45.265Z,94607.03
2018-12-20T19:53:13.312Z,94600.59
2018-12-20T19:55:43.127Z,94604.19
2018-12-20T19:58:11.301Z,94604.82
2018-12-20T20:00:39.342Z,94599.69
2018-12-20T20:03:07.418Z,94601.31
2018-12-20T20:05:35.551Z,94608.75
2018-12-20T20:08:03.639Z,94596.57
2018-12-20T20:10:31.670Z,94599.19
2018-12-20T20:12:59.822Z,94597.34
2018-12-20T20:15:27.910Z,94596.81
2018-12-20T20:17:56.053Z,94595.96
2018-12-20T20:20:24.115Z,94592.37
2018-12-20T20:22:52.140Z,94593.11
2018-12-20T20:25:20.198Z,94592.81
2018-12-20T20:27:48.219Z,94596.63
2018-12-20T20:30:16.325Z,94593.28
2018-12-20T20:32:44.356Z,94594.51
2018-12-20T20:35:12.481Z,94586.76
2018-12-20T20:37:40.580Z,94596.35
2018-12-20T20:40:10.318Z,94592.70
2018-12-20T20:42:38.398Z,94591.30
2018-12-20T20:45:06.948Z,94605.84
2018-12-20T20:47:34.971Z,94609.05
2018-12-20T20:50:03.200Z,94597.92
2018-12-20T20:52:31.223Z,94598.13
2018-12-20T20:54:59.236Z,94601.31
2018-12-20T20:57:27.377Z,94598.57
2018-12-20T20:59:55.408Z,94593.47
2018-12-20T21:02:23.524Z,94589.54
2018-12-20T21:04:51.541Z,94584.00
2018-12-20T21:07:19.680Z,94592.95
2018-12-20T21:09:47.786Z,94595.61
2018-12-20T21:12:22.801Z,94584.60
2018-12-20T21:14:52.420Z,94585.86
2018-12-20T21:17:15.934Z,94584.85
2018-12-20T21:19:43.950Z,94584.55
2018-12-20T21:22:11.994Z,94600.59
2018-12-20T21:24:40.131Z,94595.52
2018-12-20T21:27:08.157Z,94592.23
2018-12-20T21:29:36.185Z,94584.41
2018-12-20T21:32:04.922Z,94579.09
2018-12-20T21:34:32.957Z,94588.05
2018-12-20T21:37:00.985Z,94590.13
2018-12-20T21:39:29.056Z,94583.58
2018-12-20T21:41:57.066Z,94588.81
2018-12-20T21:44:25.105Z,94592.21
2018-12-20T21:46:53.120Z,94593.16
2018-12-20T21:49:21.215Z,94588.48
2018-12-20T21:51:49.261Z,94593.16
2018-12-20T21:54:17.551Z,94596.59
2018-12-20T21:56:45.678Z,94599.81
2018-12-20T21:59:13.705Z,94601.83
2018-12-20T22:01:41.729Z,94606.47
2018-12-20T22:04:09.762Z,94600.98
2018-12-20T22:06:37.804Z,94596.07
2018-12-20T22:09:07.010Z,94611.97
2018-12-20T22:11:35.102Z,94599.34
2018-12-20T22:14:03.189Z,94597.70
2018-12-20T22:16:31.288Z,94606.28
2018-12-20T22:18:59.452Z,94600.13
2018-12-20T22:21:27.494Z,94596.01
2018-12-20T22:23:55.533Z,94591.56
2018-12-20T22:26:23.632Z,94592.28
2018-12-20T22:28:51.662Z,94597.40
2018-12-20T22:31:20.381Z,94603.88
2018-12-20T22:33:48.389Z,94606.45
2018-12-20T22:36:16.438Z,94611.16
2018-12-20T22:38:44.480Z,94616.41
2018-12-20T22:41:12.614Z,94616.84
2018-12-20T22:43:40.686Z,94620.48
2018-12-20T22:46:08.710Z,94617.52
2018-12-20T22:48:36.819Z,94616.36
2018-12-20T22:51:04.966Z,94608.81
2018-12-20T22:53:33.020Z,94610.31
2018-12-20T22:56:01.169Z,94612.70
2018-12-20T22:58:29.293Z,94607.64
2018-12-20T23:00:59.351Z,94607.73
2018-12-20T23:03:27.418Z,94604.09
2018-12-20T23:05:55.468Z,94601.47
2018-12-20T23:08:23.626Z,94599.03
2018-12-20T23:10:51.705Z,94591.73
2018-12-20T23:13:19.816Z,94593.58
2018-12-20T23:15:47.913Z,94589.55
2018-12-20T23:18:16.265Z,94589.09
2018-12-20T23:20:51.805Z,94589.72
2018-12-20T23:23:19.828Z,94584.56
2018-12-20T23:25:47.854Z,94590.69
2018-12-20T23:28:15.861Z,94587.70
2018-12-20T23:30:43.869Z,94577.51
2018-12-20T23:33:11.971Z,94580.05
2018-12-20T23:35:39.993Z,94579.83
2018-12-20T23:40:49.594Z,94575.05
2018-12-20T23:43:17.664Z,94576.17
2018-12-20T23:45:45.774Z,94572.80
2018-12-20T23:48:13.872Z,94564.02
2018-12-20T23:50:41.901Z,94569.19
2018-12-20T23:53:09.920Z,94561.81
2018-12-20T23:55:38.057Z,94556.80
2018-12-20T23:58:06.082Z,94553.77
